Time;durP1;ratioP1;P1;durP2;ratioP2;P2;SDS_P1;SDS_P2;PMS_P1;PMS_P2;Temp;Humidity;BMP_temperature;BMP_pressure;BME280_temperature;BME280_humidity;BME280_pressure;Samples;Min_cycle;Max_cycle;Signal;HPM_P1;HPM_P2
2022/11/18 00:01:11;;;;;;;2.65;1.80;;;;;;;;;;5016548;28;20044;-83
2022/11/18 00:03:38;;;;;;;3.17;1.90;;;;;;;;;;5015904;28;20037;-83
2022/11/18 00:06:05;;;;;;;2.72;1.70;;;;;;;;;;5014954;28;20037;-82
2022/11/18 00:08:31;;;;;;;4.25;2.45;;;;;;;;;;5016132;28;20034;-83
2022/11/18 00:10:56;;;;;;;4.75;2.60;;;;;;;;;;4997860;28;20121;-82
2022/11/18 00:16:11;;;;;;;5.53;2.70;;;;;;;;;;5014924;28;20030;-81
2022/11/18 00:18:37;;;;;;;5.35;3.30;;;;;;;;;;5015768;28;20038;-82
2022/11/18 00:21:08;;;;;;;8.38;3.80;;;;;;;;;;5015843;28;20038;-82
2022/11/18 00:23:34;;;;;;;6.88;3.33;;;;;;;;;;5015398;28;20538;-82
2022/11/18 00:26:11;;;;;;;8.88;3.83;;;;;;;;;;5014628;28;20113;-83
2022/11/18 00:28:37;;;;;;;5.45;3.28;;;;;;;;;;5015821;28;20037;-83
2022/11/18 00:31:06;;;;;;;5.15;3.25;;;;;;;;;;5016013;28;20371;-83
2022/11/18 00:33:31;;;;;;;6.97;3.17;;;;;;;;;;4997521;28;20566;-83
2022/11/18 00:35:57;;;;;;;4.43;2.95;;;;;;;;;;4997715;28;20121;-82
2022/11/18 00:38:23;;;;;;;8.05;3.95;;;;;;;;;;5015656;28;20578;-83
2022/11/18 00:40:49;;;;;;;5.28;3.00;;;;;;;;;;5015629;28;20073;-82
2022/11/18 00:43:15;;;;;;;7.43;3.40;;;;;;;;;;5016200;28;20057;-83
2022/11/18 00:45:42;;;;;;;5.00;2.90;;;;;;;;;;5015008;28;20040;-82
2022/11/18 00:48:07;;;;;;;4.10;2.90;;;;;;;;;;5015433;28;20068;-82
2022/11/18 00:50:32;;;;;;;8.73;3.22;;;;;;;;;;5015427;28;20065;-82
2022/11/18 00:52:58;;;;;;;8.23;4.28;;;;;;;;;;5015910;28;20034;-83
2022/11/18 00:55:23;;;;;;;5.88;3.42;;;;;;;;;;5015045;28;20041;-82
2022/11/18 00:57:49;;;;;;;6.45;3.28;;;;;;;;;;4997523;28;20038;-82
2022/11/18 01:00:15;;;;;;;12.07;5.95;;;;;;;;;;5015809;28;20513;-82
2022/11/18 01:02:40;;;;;;;6.45;3.95;;;;;;;;;;5015291;28;20124;-82
2022/11/18 01:05:06;;;;;;;9.55;4.43;;;;;;;;;;5014905;28;20112;-82
2022/11/18 01:07:31;;;;;;;11.40;6.03;;;;;;;;;;4998720;28;20519;-82
2022/11/18 01:09:57;;;;;;;6.40;3.63;;;;;;;;;;4998314;28;20096;-82
2022/11/18 01:15:07;;;;;;;4.50;2.45;;;;;;;;;;5013091;28;20034;-83
2022/11/18 01:17:32;;;;;;;5.85;3.80;;;;;;;;;;5015852;28;20034;-83
2022/11/18 01:19:58;;;;;;;3.50;2.20;;;;;;;;;;5016067;28;20443;-82
2022/11/18 01:22:24;;;;;;;2.33;1.33;;;;;;;;;;5015798;28;20033;-82
2022/11/18 01:24:49;;;;;;;4.28;2.10;;;;;;;;;;5014948;28;20057;-82
2022/11/18 01:27:14;;;;;;;3.33;1.80;;;;;;;;;;5015712;28;20446;-83
2022/11/18 01:29:40;;;;;;;2.78;1.73;;;;;;;;;;5015046;28;20073;-83
2022/11/18 01:32:05;;;;;;;2.97;1.75;;;;;;;;;;4981264;28;20042;-84
2022/11/18 01:34:31;;;;;;;4.07;2.00;;;;;;;;;;5014110;28;20042;-82
2022/11/18 01:36:57;;;;;;;3.97;2.13;;;;;;;;;;5015326;28;20026;-81
2022/11/18 01:39:23;;;;;;;3.75;2.25;;;;;;;;;;5015597;28;20033;-83
2022/11/18 01:41:48;;;;;;;6.15;1.85;;;;;;;;;;5015841;28;20038;-82
2022/11/18 01:44:51;;;;;;;4.78;1.85;;;;;;;;;;5014641;28;20340;-83
2022/11/18 01:47:17;;;;;;;5.50;1.70;;;;;;;;;;5015605;28;20029;-82
2022/11/18 01:49:43;;;;;;;3.28;2.00;;;;;;;;;;4997673;28;20039;-82
2022/11/18 01:52:10;;;;;;;3.72;2.10;;;;;;;;;;5015026;28;20407;-82
2022/11/18 01:54:39;;;;;;;3.67;2.13;;;;;;;;;;5014726;28;20041;-83
2022/11/18 01:57:10;;;;;;;4.72;2.70;;;;;;;;;;5015229;28;20564;-83
2022/11/18 01:59:39;;;;;;;3.80;1.85;;;;;;;;;;5015128;28;20030;-82
2022/11/18 02:02:09;;;;;;;2.67;1.92;;;;;;;;;;5018377;28;20495;-82
2022/11/18 02:04:36;;;;;;;2.90;2.05;;;;;;;;;;5017810;28;20060;-82
2022/11/18 02:07:01;;;;;;;3.53;2.10;;;;;;;;;;5018943;28;20037;-82
2022/11/18 02:09:27;;;;;;;3.40;2.00;;;;;;;;;;5018719;28;20037;-82
2022/11/18 02:11:53;;;;;;;2.90;1.90;;;;;;;;;;5001409;28;20398;-83
2022/11/18 02:14:43;;;;;;;3.00;1.95;;;;;;;;;;5016406;28;20046;-82
2022/11/18 02:17:36;;;;;;;2.78;1.70;;;;;;;;;;5018841;28;20040;-83
2022/11/18 02:20:27;;;;;;;2.97;1.70;;;;;;;;;;5018528;28;20047;-82
2022/11/18 02:23:35;;;;;;;3.13;2.10;;;;;;;;;;5018181;28;20126;-82
2022/11/18 02:26:36;;;;;;;2.55;1.80;;;;;;;;;;5000261;28;20040;-83
2022/11/18 02:29:10;;;;;;;2.90;1.75;;;;;;;;;;5018379;28;20057;-82
2022/11/18 02:32:00;;;;;;;5.30;2.05;;;;;;;;;;5018049;28;20038;-82
2022/11/18 02:34:55;;;;;;;4.35;1.77;;;;;;;;;;5000164;28;20049;-82
2022/11/18 02:37:33;;;;;;;3.47;1.88;;;;;;;;;;5018401;28;20037;-82
2022/11/18 02:40:30;;;;;;;3.53;1.70;;;;;;;;;;5018755;28;20037;-83
2022/11/18 02:43:20;;;;;;;2.63;1.65;;;;;;;;;;5001836;28;20038;-83
2022/11/18 02:45:49;;;;;;;2.85;1.70;;;;;;;;;;5017441;28;20026;-83
2022/11/18 02:48:17;;;;;;;4.32;1.80;;;;;;;;;;5018259;28;20034;-83
2022/11/18 02:50:44;;;;;;;2.85;1.77;;;;;;;;;;5018218;28;20044;-82
2022/11/18 02:53:13;;;;;;;3.03;1.85;;;;;;;;;;5017646;28;20406;-83
2022/11/18 02:55:40;;;;;;;2.42;1.70;;;;;;;;;;5017062;28;20044;-83
2022/11/18 02:58:07;;;;;;;2.38;1.63;;;;;;;;;;5017516;28;20600;-82
2022/11/18 03:00:34;;;;;;;2.95;1.73;;;;;;;;;;5000490;28;20061;-82
2022/11/18 03:03:23;;;;;;;3.15;1.67;;;;;;;;;;4999994;28;20034;-83
2022/11/18 03:05:55;;;;;;;3.10;1.73;;;;;;;;;;5017178;28;20040;-82
2022/11/18 03:08:28;;;;;;;3.92;1.90;;;;;;;;;;5000331;28;20038;-82
2022/11/18 03:11:21;;;;;;;2.63;1.90;;;;;;;;;;5017839;28;20387;-82
2022/11/18 03:14:05;;;;;;;2.65;1.67;;;;;;;;;;5006527;28;20102;-82
2022/11/18 03:16:37;;;;;;;3.03;1.90;;;;;;;;;;5017574;28;20093;-83
2022/11/18 03:19:08;;;;;;;4.43;1.60;;;;;;;;;;5017518;28;20092;-82
2022/11/18 03:21:51;;;;;;;2.78;1.42;;;;;;;;;;5017639;28;20038;-83
2022/11/18 03:24:23;;;;;;;5.28;2.13;;;;;;;;;;5016631;28;20156;-83
2022/11/18 03:26:53;;;;;;;2.90;1.60;;;;;;;;;;5017425;28;20068;-82
2022/11/18 03:29:32;;;;;;;1.90;1.35;;;;;;;;;;5017367;28;20045;-82
2022/11/18 03:32:26;;;;;;;2.38;1.55;;;;;;;;;;5017438;28;20398;-82
2022/11/18 03:34:58;;;;;;;2.55;1.50;;;;;;;;;;5014161;28;20144;-83
2022/11/18 03:37:25;;;;;;;5.22;1.70;;;;;;;;;;5017103;28;20509;-82
2022/11/18 03:39:57;;;;;;;2.72;1.67;;;;;;;;;;5017221;28;20514;-83
2022/11/18 03:42:28;;;;;;;2.95;1.83;;;;;;;;;;4999584;28;20041;-82
2022/11/18 03:45:00;;;;;;;3.25;1.80;;;;;;;;;;4998509;28;20038;-83
2022/11/18 03:47:30;;;;;;;2.58;1.40;;;;;;;;;;5017335;28;20125;-82
2022/11/18 03:50:07;;;;;;;3.15;1.60;;;;;;;;;;4998881;28;20034;-82
2022/11/18 03:52:36;;;;;;;2.80;1.75;;;;;;;;;;5016444;28;20048;-81
2022/11/18 03:55:10;;;;;;;2.10;1.50;;;;;;;;;;5015582;28;20088;-83
2022/11/18 03:57:50;;;;;;;2.33;1.55;;;;;;;;;;5016754;28;20502;-82
2022/11/18 04:00:16;;;;;;;2.97;1.60;;;;;;;;;;4999698;28;20038;-83
2022/11/18 04:02:44;;;;;;;3.60;1.70;;;;;;;;;;5014383;28;20038;-82
2022/11/18 04:05:11;;;;;;;3.72;1.50;;;;;;;;;;4996430;28;20031;-83
2022/11/18 04:07:41;;;;;;;2.75;1.83;;;;;;;;;;4996944;28;20038;-82
2022/11/18 04:10:15;;;;;;;2.60;1.60;;;;;;;;;;4996892;28;20381;-82
2022/11/18 04:12:57;;;;;;;5.75;1.70;;;;;;;;;;4996768;28;20400;-82
2022/11/18 04:15:24;;;;;;;2.22;1.70;;;;;;;;;;4977374;28;20085;-83
2022/11/18 04:17:49;;;;;;;2.67;1.52;;;;;;;;;;4978733;28;20109;-82
2022/11/18 04:20:18;;;;;;;4.20;1.80;;;;;;;;;;4996688;28;20422;-82
2022/11/18 04:22:43;;;;;;;4.25;2.10;;;;;;;;;;4996500;28;20030;-83
2022/11/18 04:25:09;;;;;;;3.10;2.00;;;;;;;;;;4996443;28;20066;-82
2022/11/18 04:27:34;;;;;;;9.07;3.70;;;;;;;;;;4979305;28;20040;-82
2022/11/18 04:30:00;;;;;;;6.43;3.10;;;;;;;;;;4978643;28;20041;-83
2022/11/18 04:32:25;;;;;;;3.30;2.10;;;;;;;;;;4997199;28;20096;-82
2022/11/18 04:34:51;;;;;;;3.13;1.90;;;;;;;;;;4996085;28;20046;-82
2022/11/18 04:37:16;;;;;;;2.80;1.70;;;;;;;;;;4997222;28;20131;-82
2022/11/18 04:39:42;;;;;;;2.40;2.00;;;;;;;;;;4979817;28;20045;-82
2022/11/18 04:42:07;;;;;;;4.45;2.08;;;;;;;;;;4997016;28;20038;-83
2022/11/18 04:44:33;;;;;;;6.68;2.85;;;;;;;;;;4996167;28;20073;-83
2022/11/18 04:47:02;;;;;;;4.00;2.28;;;;;;;;;;4979517;28;20050;-82
2022/11/18 04:49:28;;;;;;;5.57;2.85;;;;;;;;;;4962917;28;20034;-82
2022/11/18 04:51:55;;;;;;;2.97;2.10;;;;;;;;;;4996421;28;20073;-82
2022/11/18 04:54:22;;;;;;;2.75;1.92;;;;;;;;;;4996076;28;20045;-82
2022/11/18 04:56:48;;;;;;;3.65;2.00;;;;;;;;;;4997331;28;20093;-83
2022/11/18 04:59:15;;;;;;;3.92;2.00;;;;;;;;;;4997942;28;20026;-83
2022/11/18 05:01:41;;;;;;;4.15;2.15;;;;;;;;;;4997356;28;20026;-83
2022/11/18 05:04:06;;;;;;;3.75;2.40;;;;;;;;;;4979531;28;20037;-82
2022/11/18 05:06:32;;;;;;;3.20;2.40;;;;;;;;;;4997530;28;20030;-83
2022/11/18 05:08:59;;;;;;;2.17;1.30;;;;;;;;;;4996123;28;20038;-82
2022/11/18 05:14:10;;;;;;;1.02;0.75;;;;;;;;;;4978117;28;20049;-82
2022/11/18 05:16:35;;;;;;;1.10;0.55;;;;;;;;;;4996272;28;20117;-82
2022/11/18 05:19:02;;;;;;;0.70;0.50;;;;;;;;;;4995802;28;20042;-82
2022/11/18 05:21:27;;;;;;;1.50;0.80;;;;;;;;;;4978138;28;20041;-82
2022/11/18 05:23:53;;;;;;;0.80;0.70;;;;;;;;;;4996485;28;20030;-83
2022/11/18 05:26:19;;;;;;;1.50;0.60;;;;;;;;;;4996682;28;20054;-83
2022/11/18 05:28:44;;;;;;;0.63;0.40;;;;;;;;;;4963421;28;20105;-83
2022/11/18 05:31:12;;;;;;;1.65;0.90;;;;;;;;;;4979306;28;20049;-82
2022/11/18 05:33:38;;;;;;;0.57;0.50;;;;;;;;;;4996713;28;20046;-82
2022/11/18 05:36:07;;;;;;;1.75;0.30;;;;;;;;;;4997809;28;20026;-82
2022/11/18 05:38:33;;;;;;;1.20;0.32;;;;;;;;;;4983305;28;20077;-83
2022/11/18 05:41:00;;;;;;;0.32;0.32;;;;;;;;;;5000449;28;20141;-83
2022/11/18 05:43:25;;;;;;;0.63;0.40;;;;;;;;;;5000816;28;20034;-83
2022/11/18 05:45:51;;;;;;;1.17;0.60;;;;;;;;;;4982485;28;20134;-83
2022/11/18 05:48:18;;;;;;;0.80;0.50;;;;;;;;;;5000860;28;20034;-83
2022/11/18 05:50:51;;;;;;;0.73;0.70;;;;;;;;;;5000426;28;20030;-84
2022/11/18 05:53:18;;;;;;;2.55;1.10;;;;;;;;;;4982850;28;20042;-83
2022/11/18 05:55:55;;;;;;;0.80;0.60;;;;;;;;;;4999816;28;20058;-83
2022/11/18 05:58:21;;;;;;;1.50;0.68;;;;;;;;;;4982355;28;20038;-83
2022/11/18 06:00:50;;;;;;;0.90;0.60;;;;;;;;;;4982253;28;20491;-82
2022/11/18 06:03:23;;;;;;;2.78;0.73;;;;;;;;;;4999485;28;20034;-83
2022/11/18 06:05:53;;;;;;;1.67;1.02;;;;;;;;;;4998507;28;20034;-82
2022/11/18 06:08:20;;;;;;;0.47;0.45;;;;;;;;;;5000496;28;20045;-83
2022/11/18 06:10:47;;;;;;;0.60;0.60;;;;;;;;;;4982022;28;20647;-83
2022/11/18 06:13:19;;;;;;;0.80;0.70;;;;;;;;;;4999319;28;20077;-83
2022/11/18 06:15:45;;;;;;;3.15;0.93;;;;;;;;;;4998789;28;20038;-82
2022/11/18 06:18:24;;;;;;;1.70;1.20;;;;;;;;;;4999007;28;20038;-83
2022/11/18 06:20:53;;;;;;;1.17;0.90;;;;;;;;;;4998948;28;20042;-83
2022/11/18 06:23:19;;;;;;;1.50;1.10;;;;;;;;;;4999181;28;20030;-82
2022/11/18 06:25:45;;;;;;;1.58;1.10;;;;;;;;;;4998398;28;20097;-83
2022/11/18 06:28:12;;;;;;;1.50;0.65;;;;;;;;;;4998789;28;20125;-82
2022/11/18 06:30:38;;;;;;;0.60;0.60;;;;;;;;;;4998209;28;20038;-82
2022/11/18 06:33:04;;;;;;;0.80;0.60;;;;;;;;;;4998732;28;20096;-83
2022/11/18 06:35:29;;;;;;;1.20;0.80;;;;;;;;;;4998246;28;20042;-83
2022/11/18 06:37:54;;;;;;;1.55;0.57;;;;;;;;;;4999116;28;20110;-83
2022/11/18 06:40:20;;;;;;;0.50;0.50;;;;;;;;;;4980938;28;20034;-82
2022/11/18 06:45:29;;;;;;;1.40;0.50;;;;;;;;;;4997912;28;20034;-83
2022/11/18 06:48:02;;;;;;;0.70;0.60;;;;;;;;;;4980117;28;20041;-83
2022/11/18 06:50:28;;;;;;;1.13;0.60;;;;;;;;;;4981092;28;20549;-83
2022/11/18 06:52:54;;;;;;;0.55;0.55;;;;;;;;;;4980926;28;20074;-83
2022/11/18 06:55:19;;;;;;;0.65;0.50;;;;;;;;;;4979866;28;20032;-83
2022/11/18 06:57:45;;;;;;;0.77;0.70;;;;;;;;;;4999942;28;20038;-82
2022/11/18 07:00:11;;;;;;;0.65;0.60;;;;;;;;;;4999215;28;20042;-83
2022/11/18 07:02:37;;;;;;;1.10;0.50;;;;;;;;;;4998638;28;20032;-83
2022/11/18 07:05:04;;;;;;;1.48;0.77;;;;;;;;;;4998259;28;20443;-82
2022/11/18 07:07:29;;;;;;;0.98;0.70;;;;;;;;;;4981770;28;20041;-82
2022/11/18 07:09:55;;;;;;;1.40;0.73;;;;;;;;;;4999091;28;20030;-84
2022/11/18 07:12:20;;;;;;;5.65;2.17;;;;;;;;;;4980195;28;20049;-84
2022/11/18 07:14:46;;;;;;;0.80;0.50;;;;;;;;;;4995783;28;20113;-84
2022/11/18 07:17:11;;;;;;;0.68;0.50;;;;;;;;;;4997918;28;20069;-84
2022/11/18 07:19:38;;;;;;;0.57;0.38;;;;;;;;;;4997471;28;20525;-83
2022/11/18 07:22:04;;;;;;;1.90;0.40;;;;;;;;;;4997832;28;20029;-82
2022/11/18 07:24:30;;;;;;;2.78;0.60;;;;;;;;;;4997194;28;20484;-83
2022/11/18 07:26:55;;;;;;;0.55;0.40;;;;;;;;;;4980523;28;20090;-83
2022/11/18 07:29:21;;;;;;;0.47;0.43;;;;;;;;;;4997639;28;20042;-84
2022/11/18 07:31:46;;;;;;;1.63;0.70;;;;;;;;;;4997938;28;20476;-86
2022/11/18 07:34:12;;;;;;;0.77;0.50;;;;;;;;;;4997312;28;20096;-86
2022/11/18 07:36:37;;;;;;;0.88;0.70;;;;;;;;;;4997508;28;20038;-85
2022/11/18 07:39:05;;;;;;;0.70;0.57;;;;;;;;;;4998491;28;20169;-83
2022/11/18 07:41:31;;;;;;;0.93;0.80;;;;;;;;;;4979847;28;20518;-83
2022/11/18 07:43:59;;;;;;;0.75;0.60;;;;;;;;;;4996623;28;20062;-82
2022/11/18 07:46:26;;;;;;;0.57;0.50;;;;;;;;;;4996897;28;20037;-83
2022/11/18 07:48:53;;;;;;;0.90;0.40;;;;;;;;;;4996905;28;20042;-84
2022/11/18 07:51:22;;;;;;;0.85;0.60;;;;;;;;;;4997142;28;20053;-84
2022/11/18 07:53:48;;;;;;;1.23;0.60;;;;;;;;;;4996607;28;20113;-84
2022/11/18 07:56:13;;;;;;;1.27;1.00;;;;;;;;;;4995786;28;20579;-83
2022/11/18 07:58:39;;;;;;;3.75;1.80;;;;;;;;;;4996468;28;20399;-85
2022/11/18 08:01:10;;;;;;;3.33;2.33;;;;;;;;;;4980360;28;20066;-85
2022/11/18 08:03:36;;;;;;;1.85;1.20;;;;;;;;;;4997038;28;20034;-85
2022/11/18 08:06:02;;;;;;;1.95;1.30;;;;;;;;;;4997235;28;20080;-85
2022/11/18 08:08:27;;;;;;;0.40;0.40;;;;;;;;;;4997057;28;20057;-85
2022/11/18 08:10:57;;;;;;;0.25;0.10;;;;;;;;;;4997147;28;20475;-86
2022/11/18 08:13:23;;;;;;;0.65;0.50;;;;;;;;;;4996172;28;20077;-85
2022/11/18 08:15:49;;;;;;;0.60;0.30;;;;;;;;;;4996220;28;20467;-84
2022/11/18 08:18:15;;;;;;;1.42;0.40;;;;;;;;;;4997341;28;20026;-85
2022/11/18 08:20:40;;;;;;;2.40;1.13;;;;;;;;;;4997207;28;20046;-83
2022/11/18 08:23:06;;;;;;;9.38;4.03;;;;;;;;;;4996878;28;20042;-85
2022/11/18 08:25:31;;;;;;;8.35;3.50;;;;;;;;;;4996365;28;20092;-84
2022/11/18 08:27:57;;;;;;;8.40;3.95;;;;;;;;;;4997073;28;20085;-84
2022/11/18 08:30:22;;;;;;;4.03;1.33;;;;;;;;;;4978550;28;20601;-83
2022/11/18 08:32:48;;;;;;;0.38;0.30;;;;;;;;;;4962879;28;20125;-83
2022/11/18 08:35:13;;;;;;;2.58;1.23;;;;;;;;;;4995665;28;20057;-83
2022/11/18 08:37:39;;;;;;;0.95;0.60;;;;;;;;;;4997485;28;20073;-83
2022/11/18 08:40:06;;;;;;;3.35;1.40;;;;;;;;;;4998802;28;20085;-83
2022/11/18 08:42:31;;;;;;;0.38;0.30;;;;;;;;;;4998313;28;20030;-84
2022/11/18 08:44:57;;;;;;;2.10;1.10;;;;;;;;;;4999167;28;20065;-84
2022/11/18 08:47:22;;;;;;;9.60;4.03;;;;;;;;;;4983164;28;20030;-84
2022/11/18 08:49:48;;;;;;;2.17;0.93;;;;;;;;;;4999282;28;20049;-84
2022/11/18 08:52:13;;;;;;;0.63;0.30;;;;;;;;;;5001429;28;20126;-84
2022/11/18 08:54:39;;;;;;;0.10;0.10;;;;;;;;;;4998605;28;20046;-83
2022/11/18 08:57:04;;;;;;;0.57;0.20;;;;;;;;;;4998485;28;20038;-85
2022/11/18 08:59:31;;;;;;;0.60;0.40;;;;;;;;;;4998397;28;20039;-84
2022/11/18 09:01:56;;;;;;;0.60;0.10;;;;;;;;;;4997830;28;20080;-84
2022/11/18 09:04:21;;;;;;;0.32;0.22;;;;;;;;;;4997324;28;20426;-83
2022/11/18 09:06:47;;;;;;;2.13;0.20;;;;;;;;;;4997363;28;20030;-82
2022/11/18 09:09:12;;;;;;;1.02;0.30;;;;;;;;;;4997183;28;20038;-84
2022/11/18 09:11:38;;;;;;;0.73;0.22;;;;;;;;;;4996957;28;20114;-84
2022/11/18 09:14:04;;;;;;;0.20;0.20;;;;;;;;;;4978113;28;20591;-85
2022/11/18 09:16:31;;;;;;;2.60;1.38;;;;;;;;;;4996014;28;20040;-84
2022/11/18 09:18:58;;;;;;;4.20;2.60;;;;;;;;;;4978886;28;20030;-82
2022/11/18 09:21:24;;;;;;;0.57;0.40;;;;;;;;;;4997268;28;20513;-84
2022/11/18 09:23:50;;;;;;;1.17;0.40;;;;;;;;;;4996620;28;20034;-82
2022/11/18 09:26:19;;;;;;;0.28;0.28;;;;;;;;;;4978824;28;20031;-82
2022/11/18 09:28:45;;;;;;;0.60;0.60;;;;;;;;;;4997552;28;20041;-84
2022/11/18 09:31:13;;;;;;;0.40;0.40;;;;;;;;;;4979229;28;20034;-84
2022/11/18 09:33:38;;;;;;;0.40;0.40;;;;;;;;;;4996570;28;20065;-83
2022/11/18 09:36:10;;;;;;;0.13;0.13;;;;;;;;;;4997535;28;20487;-84
2022/11/18 09:38:35;;;;;;;0.95;0.32;;;;;;;;;;4997286;28;20070;-85
2022/11/18 09:41:13;;;;;;;0.40;0.28;;;;;;;;;;4996116;28;20042;-85
2022/11/18 09:43:51;;;;;;;0.20;0.20;;;;;;;;;;4996221;28;20041;-84
2022/11/18 09:46:38;;;;;;;14.88;3.10;;;;;;;;;;4995982;28;20022;-86
2022/11/18 09:49:26;;;;;;;2.30;1.02;;;;;;;;;;4996081;28;20034;-87
2022/11/18 09:51:53;;;;;;;4.97;1.88;;;;;;;;;;4996394;28;20038;-85
2022/11/18 09:54:24;;;;;;;2.13;0.88;;;;;;;;;;4994856;28;20034;-86
2022/11/18 09:56:52;;;;;;;2.35;1.30;;;;;;;;;;4994736;28;20407;-85
2022/11/18 09:59:23;;;;;;;2.00;1.00;;;;;;;;;;4995141;28;20037;-84
2022/11/18 10:01:51;;;;;;;2.63;1.23;;;;;;;;;;4995625;28;20038;-84
2022/11/18 10:04:19;;;;;;;3.20;1.55;;;;;;;;;;4977654;28;20097;-84
2022/11/18 10:06:46;;;;;;;0.40;0.30;;;;;;;;;;4995910;28;20041;-85
2022/11/18 10:09:40;;;;;;;3.95;1.55;;;;;;;;;;4978302;28;20547;-86
2022/11/18 10:12:24;;;;;;;1.08;0.80;;;;;;;;;;4993112;28;20415;-85
2022/11/18 10:15:07;;;;;;;1.35;0.30;;;;;;;;;;4993719;28;20041;-85
2022/11/18 10:17:38;;;;;;;0.20;0.20;;;;;;;;;;4977836;28;20065;-84
2022/11/18 10:20:34;;;;;;;4.32;0.32;;;;;;;;;;4995614;28;20048;-84
2022/11/18 10:23:15;;;;;;;0.60;0.20;;;;;;;;;;4998411;28;20038;-86
2022/11/18 10:25:41;;;;;;;0.10;0.10;;;;;;;;;;4998303;28;20464;-87
2022/11/18 10:28:34;;;;;;;0.10;0.10;;;;;;;;;;4998828;28;20033;-84
2022/11/18 10:31:05;;;;;;;0.25;0.25;;;;;;;;;;4996755;28;20046;-86
2022/11/18 10:33:30;;;;;;;0.40;0.30;;;;;;;;;;4981706;28;20046;-86
2022/11/18 10:36:08;;;;;;;0.20;0.20;;;;;;;;;;4980763;28;20098;-84
2022/11/18 10:38:34;;;;;;;0.10;0.10;;;;;;;;;;4999039;28;20069;-85
2022/11/18 10:41:02;;;;;;;0.35;0.30;;;;;;;;;;4981570;28;20042;-85
2022/11/18 10:43:49;;;;;;;0.88;0.40;;;;;;;;;;4999000;28;20050;-85
2022/11/18 10:46:29;;;;;;;2.83;0.30;;;;;;;;;;4998820;28;20038;-85
2022/11/18 10:49:07;;;;;;;0.20;0.20;;;;;;;;;;4999078;28;20049;-85
2022/11/18 10:51:33;;;;;;;0.25;0.17;;;;;;;;;;4999064;28;20049;-85
2022/11/18 10:54:19;;;;;;;1.40;0.20;;;;;;;;;;4981086;28;20038;-85
2022/11/18 10:57:03;;;;;;;0.20;0.20;;;;;;;;;;4998724;28;20030;-84
2022/11/18 10:59:38;;;;;;;0.30;0.30;;;;;;;;;;4998341;28;20038;-85
2022/11/18 11:02:15;;;;;;;0.43;0.28;;;;;;;;;;4998551;28;20030;-86
2022/11/18 11:04:42;;;;;;;0.10;0.10;;;;;;;;;;4997546;28;20447;-85
2022/11/18 11:07:27;;;;;;;0.85;0.30;;;;;;;;;;4997764;28;20395;-85
2022/11/18 11:10:21;;;;;;;0.50;0.35;;;;;;;;;;4997640;28;20030;-85
2022/11/18 11:12:56;;;;;;;0.63;0.30;;;;;;;;;;4991989;28;20054;-83
2022/11/18 11:15:34;;;;;;;0.93;0.20;;;;;;;;;;4976816;28;20031;-87
2022/11/18 11:19:03;;;;;;;0.30;0.20;;;;;;;;;;4979227;28;20081;-84
2022/11/18 11:20:58;;;;;;;0.35;0.30;;;;;;;;;;4988506;28;20395;-85
2022/11/18 11:23:24;;;;;;;0.75;0.20;;;;;;;;;;4997046;28;20041;-85
2022/11/18 11:25:58;;;;;;;0.20;0.20;;;;;;;;;;4997603;28;20395;-85
2022/11/18 11:28:50;;;;;;;0.73;0.30;;;;;;;;;;4997217;28;20073;-83
2022/11/18 11:31:53;;;;;;;0.22;0.20;;;;;;;;;;4998365;28;20038;-84
2022/11/18 11:34:35;;;;;;;0.22;0.20;;;;;;;;;;4995803;28;20034;-83
2022/11/18 11:37:16;;;;;;;0.80;0.20;;;;;;;;;;4996741;28;20054;-84
2022/11/18 11:39:58;;;;;;;0.73;0.20;;;;;;;;;;4980095;28;20042;-83
2022/11/18 11:42:38;;;;;;;0.20;0.20;;;;;;;;;;5005248;28;20037;-83
2022/11/18 11:45:15;;;;;;;0.30;0.20;;;;;;;;;;4983255;28;20080;-83
2022/11/18 11:47:59;;;;;;;0.25;0.20;;;;;;;;;;5016604;28;20038;-83
2022/11/18 11:51:02;;;;;;;0.20;0.20;;;;;;;;;;4999755;28;20049;-85
2022/11/18 11:53:48;;;;;;;0.10;0.10;;;;;;;;;;5000349;28;20034;-85
2022/11/18 11:56:20;;;;;;;0.10;0.10;;;;;;;;;;5016868;28;20052;-85
2022/11/18 11:59:12;;;;;;;0.35;0.25;;;;;;;;;;5017903;28;20098;-85
2022/11/18 12:01:59;;;;;;;0.30;0.25;;;;;;;;;;5013997;28;20136;-87
2022/11/18 12:04:41;;;;;;;0.57;0.50;;;;;;;;;;5017110;28;20038;-85
2022/11/18 12:07:15;;;;;;;0.20;0.20;;;;;;;;;;5017289;28;20034;-86
2022/11/18 12:10:05;;;;;;;0.45;0.30;;;;;;;;;;5017712;28;20518;-85
2022/11/18 12:12:54;;;;;;;1.13;0.30;;;;;;;;;;5017025;28;20038;-83
2022/11/18 12:15:39;;;;;;;0.25;0.20;;;;;;;;;;4997731;28;20038;-83
2022/11/18 12:18:26;;;;;;;0.70;0.30;;;;;;;;;;4999886;28;20080;-84
2022/11/18 12:20:53;;;;;;;5.22;0.20;;;;;;;;;;4998943;28;20183;-84
2022/11/18 12:23:32;;;;;;;0.15;0.15;;;;;;;;;;5017073;28;20046;-83
2022/11/18 12:26:10;;;;;;;0.60;0.25;;;;;;;;;;4997418;28;20022;-83
2022/11/18 12:28:40;;;;;;;0.63;0.20;;;;;;;;;;5015984;28;20037;-84
2022/11/18 12:31:14;;;;;;;0.45;0.30;;;;;;;;;;5015515;28;20091;-82
2022/11/18 12:33:50;;;;;;;0.30;0.20;;;;;;;;;;4997421;28;20076;-84
2022/11/18 12:36:38;;;;;;;0.30;0.20;;;;;;;;;;4997382;28;20069;-84
2022/11/18 12:39:22;;;;;;;11.50;6.50;;;;;;;;;;4998174;28;20092;-84
2022/11/18 12:44:36;;;;;;;0.20;0.20;;;;;;;;;;4996094;28;20046;-81
2022/11/18 12:47:07;;;;;;;0.10;0.10;;;;;;;;;;4978757;28;20029;-83
2022/11/18 12:49:32;;;;;;;0.80;0.30;;;;;;;;;;4996230;28;20042;-83
2022/11/18 12:51:59;;;;;;;0.55;0.22;;;;;;;;;;4995955;28;20089;-85
2022/11/18 12:54:30;;;;;;;1.20;0.40;;;;;;;;;;4995744;28;20447;-84
2022/11/18 12:57:00;;;;;;;0.10;0.10;;;;;;;;;;4996502;28;20058;-85
2022/11/18 12:59:36;;;;;;;0.22;0.22;;;;;;;;;;4978597;28;20189;-85
2022/11/18 13:02:20;;;;;;;0.80;0.43;;;;;;;;;;4978576;28;20038;-86
2022/11/18 13:05:03;;;;;;;0.45;0.45;;;;;;;;;;4978723;28;20034;-85
2022/11/18 13:10:23;;;;;;;0.10;0.10;;;;;;;;;;4997781;28;20068;-86
2022/11/18 13:12:50;;;;;;;0.13;0.13;;;;;;;;;;4997989;28;20070;-86
2022/11/18 13:18:11;;;;;;;0.10;0.10;;;;;;;;;;4998552;28;20058;-86
2022/11/18 13:20:37;;;;;;;0.25;0.20;;;;;;;;;;4997790;28;20034;-87
2022/11/18 13:26:01;;;;;;;1.77;0.32;;;;;;;;;;5016637;28;20042;-86
2022/11/18 13:29:03;;;;;;;0.30;0.30;;;;;;;;;;4999534;28;20084;-85
2022/11/18 13:31:35;;;;;;;0.20;0.20;;;;;;;;;;4990380;28;20128;-87
2022/11/18 13:34:03;;;;;;;0.20;0.20;;;;;;;;;;4996911;28;20042;-84
2022/11/18 13:36:30;;;;;;;1.27;1.10;;;;;;;;;;4996165;28;20031;-85
2022/11/18 13:39:05;;;;;;;1.52;0.60;;;;;;;;;;4995802;28;20093;-84
2022/11/18 13:41:34;;;;;;;0.80;0.80;;;;;;;;;;4995890;28;20042;-84
2022/11/18 13:44:22;;;;;;;1.15;1.00;;;;;;;;;;4977922;28;20089;-84
2022/11/18 13:46:53;;;;;;;1.38;0.70;;;;;;;;;;4995749;28;20042;-83
2022/11/18 13:49:27;;;;;;;0.35;0.32;;;;;;;;;;4978664;28;20042;-85
2022/11/18 13:51:54;;;;;;;1.30;0.98;;;;;;;;;;4995955;28;20077;-85
2022/11/18 13:54:24;;;;;;;0.60;0.60;;;;;;;;;;4995743;28;20030;-84
2022/11/18 13:56:50;;;;;;;2.65;0.80;;;;;;;;;;4998730;28;20038;-86
2022/11/18 13:59:22;;;;;;;1.80;1.33;;;;;;;;;;4982324;28;20113;-86
2022/11/18 14:01:57;;;;;;;0.88;0.47;;;;;;;;;;4999786;28;20045;-86
2022/11/18 14:04:27;;;;;;;0.55;0.52;;;;;;;;;;4998861;28;20102;-86
2022/11/18 14:07:03;;;;;;;0.50;0.40;;;;;;;;;;5001469;28;20053;-85
2022/11/18 14:09:29;;;;;;;0.30;0.30;;;;;;;;;;5001557;28;20129;-85
2022/11/18 14:12:06;;;;;;;1.85;0.30;;;;;;;;;;4998632;28;20054;-84
2022/11/18 14:14:40;;;;;;;0.50;0.20;;;;;;;;;;4997415;28;20034;-84
2022/11/18 14:17:26;;;;;;;0.70;0.30;;;;;;;;;;4999069;28;20510;-85
2022/11/18 14:19:57;;;;;;;0.70;0.30;;;;;;;;;;4999121;28;20042;-87
2022/11/18 14:22:24;;;;;;;2.08;1.70;;;;;;;;;;4984032;28;20073;-86
2022/11/18 14:25:14;;;;;;;4.20;1.40;;;;;;;;;;4998904;28;20030;-87
2022/11/18 14:27:42;;;;;;;0.98;0.40;;;;;;;;;;4999983;28;20568;-85
2022/11/18 14:30:41;;;;;;;1.95;1.10;;;;;;;;;;5004601;28;20410;-84
2022/11/18 14:33:36;;;;;;;0.82;0.63;;;;;;;;;;4965796;28;20050;-85
2022/11/18 14:36:15;;;;;;;1.27;0.60;;;;;;;;;;5006595;28;20035;-86
2022/11/18 14:38:46;;;;;;;0.50;0.50;;;;;;;;;;5002198;28;20042;-86
2022/11/18 14:41:14;;;;;;;2.50;1.42;;;;;;;;;;4984444;28;20424;-85
2022/11/18 14:43:42;;;;;;;1.38;1.10;;;;;;;;;;5002698;28;20407;-86
2022/11/18 14:46:17;;;;;;;3.60;1.70;;;;;;;;;;5001690;28;20041;-85
2022/11/18 14:48:43;;;;;;;1.73;1.25;;;;;;;;;;4983885;28;20126;-85
2022/11/18 14:51:15;;;;;;;4.07;2.00;;;;;;;;;;4998964;28;20022;-85
2022/11/18 14:53:42;;;;;;;0.90;0.80;;;;;;;;;;4981566;28;20038;-85
2022/11/18 14:56:29;;;;;;;1.27;0.82;;;;;;;;;;4999103;28;20540;-85
2022/11/18 14:58:55;;;;;;;2.58;0.93;;;;;;;;;;4999183;28;20113;-85
2022/11/18 15:01:23;;;;;;;0.80;0.63;;;;;;;;;;4998932;28;20502;-86
2022/11/18 15:03:50;;;;;;;1.67;0.98;;;;;;;;;;4998186;28;20097;-87
2022/11/18 15:06:18;;;;;;;1.85;1.58;;;;;;;;;;4998232;28;20040;-86
2022/11/18 15:08:46;;;;;;;1.55;0.95;;;;;;;;;;4980189;28;20406;-88
2022/11/18 15:11:11;;;;;;;2.58;0.90;;;;;;;;;;4999004;28;20057;-88
2022/11/18 15:13:38;;;;;;;7.10;2.38;;;;;;;;;;4978935;28;20030;-85
2022/11/18 15:16:15;;;;;;;1.45;0.80;;;;;;;;;;4996729;28;20053;-84
2022/11/18 15:18:42;;;;;;;0.73;0.70;;;;;;;;;;4997860;28;20038;-86
2022/11/18 15:21:07;;;;;;;0.85;0.63;;;;;;;;;;4998246;28;20026;-84
2022/11/18 15:23:33;;;;;;;0.75;0.60;;;;;;;;;;4997525;28;20466;-84
2022/11/18 15:25:58;;;;;;;0.77;0.63;;;;;;;;;;4997865;28;20045;-84
2022/11/18 15:28:24;;;;;;;1.00;0.80;;;;;;;;;;5006836;28;20049;-89
2022/11/18 15:30:49;;;;;;;2.70;1.08;;;;;;;;;;5007577;28;20010;-87